Assis Chateaubriand, Brazil
Current Conditions -  °F | °C
As of 6:00 AM on Saturday 20 Dec 2014 (Local Time) from SBCA Reporting Station
Clear Clear  
Wind Chill: 72°   Ceiling: Unl
Heat Index: 72°   Visibility: 6mi
Dew Point: 66°   Wind: 21mph
Humidity: 83%   Direction: 40°NE
Pressure: 29.8"   Gusts: NA
Location:  24.42°S, 53.52°W
Report Text: SBCA 200800Z 04018KT CAVOK 22/19 Q1009
Loading
Personal Weather Stations






























Interactive Weather Map New forecast layout! Learn more

10-Day Weather Forecast

Advertisements
Track Severe Weather on mobile